createdAt,value
2018-08-14T00:00:23.513Z,0.00
2018-08-14T00:01:23.509Z,0.00
2018-08-14T00:02:23.504Z,0.00
2018-08-14T00:03:23.499Z,0.00
2018-08-14T00:04:23.493Z,0.00
2018-08-14T00:05:23.492Z,0.00
2018-08-14T00:06:23.483Z,0.00
2018-08-14T00:07:23.477Z,0.00
2018-08-14T00:08:23.473Z,0.00
2018-08-14T00:09:23.468Z,0.00
2018-08-14T00:10:23.466Z,0.00
2018-08-14T00:11:23.457Z,0.00
2018-08-14T00:12:23.452Z,0.00
2018-08-14T00:13:23.447Z,0.00
2018-08-14T00:14:23.442Z,0.00
2018-08-14T00:15:23.436Z,0.00
2018-08-14T00:16:23.431Z,0.00
2018-08-14T00:17:23.426Z,0.00
2018-08-14T00:18:23.424Z,0.00
2018-08-14T00:19:23.416Z,0.00
2018-08-14T00:20:23.411Z,0.00
2018-08-14T00:21:23.406Z,0.00
2018-08-14T00:22:23.401Z,0.00
2018-08-14T00:23:23.396Z,0.00
2018-08-14T00:24:23.391Z,0.00
2018-08-14T00:25:23.388Z,0.00
2018-08-14T00:26:23.382Z,0.00
2018-08-14T00:27:23.375Z,0.00
2018-08-14T00:28:23.371Z,0.00
2018-08-14T00:29:23.367Z,0.00
2018-08-14T00:30:23.361Z,0.00
2018-08-14T00:31:23.356Z,0.00
2018-08-14T00:32:23.351Z,0.00
2018-08-14T00:33:23.346Z,0.00
2018-08-14T00:34:23.341Z,0.00
2018-08-14T00:35:23.336Z,0.00
2018-08-14T00:36:23.331Z,0.00
2018-08-14T00:37:23.326Z,0.00
2018-08-14T00:38:23.322Z,0.00
2018-08-14T00:39:23.316Z,0.00
2018-08-14T00:40:23.311Z,0.00
2018-08-14T00:41:23.306Z,0.00
2018-08-14T00:42:23.301Z,0.00
2018-08-14T00:43:23.296Z,0.00
2018-08-14T00:44:23.291Z,0.00
2018-08-14T00:45:23.286Z,0.00
2018-08-14T00:46:23.282Z,0.00
2018-08-14T00:47:23.275Z,0.00
2018-08-14T00:48:23.271Z,0.00
2018-08-14T00:49:23.268Z,0.00
2018-08-14T00:50:23.261Z,0.00
2018-08-14T00:51:23.255Z,0.00
2018-08-14T00:52:23.250Z,0.00
2018-08-14T00:53:23.251Z,0.00
2018-08-14T00:54:23.248Z,0.00
2018-08-14T00:55:23.236Z,0.00
2018-08-14T00:56:23.229Z,0.00
2018-08-14T00:57:23.224Z,0.00
2018-08-14T00:58:23.225Z,0.00
2018-08-14T00:59:23.213Z,0.00
2018-08-14T01:00:23.209Z,0.00
2018-08-14T01:01:23.204Z,0.00
2018-08-14T01:02:23.202Z,0.00
2018-08-14T01:03:23.193Z,0.00
2018-08-14T01:04:23.188Z,0.00
2018-08-14T01:05:23.199Z,0.00
2018-08-14T01:06:23.178Z,0.00
2018-08-14T01:07:23.174Z,0.00
2018-08-14T01:08:23.167Z,0.00
2018-08-14T01:09:23.163Z,0.00
2018-08-14T01:10:23.157Z,0.00
2018-08-14T01:11:23.154Z,0.00
2018-08-14T01:12:23.147Z,0.00
2018-08-14T01:13:23.143Z,0.00
2018-08-14T01:14:23.137Z,0.00
2018-08-14T01:15:23.131Z,0.00
2018-08-14T01:16:23.129Z,0.00
2018-08-14T01:17:23.121Z,0.00
2018-08-14T01:18:23.117Z,0.00
2018-08-14T01:19:23.111Z,0.00
2018-08-14T01:20:23.105Z,0.00
2018-08-14T01:21:23.101Z,0.00
2018-08-14T01:22:23.096Z,0.00
2018-08-14T01:23:23.091Z,0.00
2018-08-14T01:24:23.085Z,0.00
2018-08-14T01:25:23.081Z,0.00
2018-08-14T01:26:23.076Z,0.00
2018-08-14T01:27:23.070Z,0.00
2018-08-14T01:28:23.065Z,0.00
2018-08-14T01:29:23.060Z,0.00
2018-08-14T01:30:23.055Z,0.00
2018-08-14T01:31:23.050Z,0.00
2018-08-14T01:32:23.044Z,0.00
2018-08-14T01:33:23.040Z,0.00
2018-08-14T01:34:23.034Z,0.00
2018-08-14T01:35:23.030Z,0.00
2018-08-14T01:36:23.023Z,0.00
2018-08-14T01:37:23.019Z,0.00
2018-08-14T01:38:23.013Z,0.00
2018-08-14T01:39:23.008Z,0.00
2018-08-14T01:40:23.002Z,0.00
2018-08-14T01:41:22.997Z,0.00
2018-08-14T01:42:22.992Z,0.00
2018-08-14T01:43:22.985Z,0.00
2018-08-14T01:44:22.980Z,0.00
2018-08-14T01:45:22.977Z,0.00
2018-08-14T01:46:22.970Z,0.00
2018-08-14T01:47:22.976Z,0.00
2018-08-14T01:48:22.960Z,0.00
2018-08-14T01:49:22.955Z,0.00
2018-08-14T01:50:22.955Z,0.00
2018-08-14T01:51:22.944Z,0.00
2018-08-14T01:52:22.941Z,0.00
2018-08-14T01:53:22.933Z,0.00
2018-08-14T01:54:22.937Z,0.00
2018-08-14T01:55:22.925Z,0.00
2018-08-14T01:56:22.917Z,0.00
2018-08-14T01:57:22.912Z,0.00
2018-08-14T01:58:22.907Z,0.00
2018-08-14T01:59:22.901Z,0.00
2018-08-14T02:00:22.898Z,0.00
2018-08-14T02:01:22.893Z,0.00
2018-08-14T02:02:22.889Z,0.00
2018-08-14T02:03:22.880Z,0.00
2018-08-14T02:04:22.875Z,0.00
2018-08-14T02:05:22.869Z,0.00
2018-08-14T02:06:22.865Z,0.00
2018-08-14T02:07:22.859Z,0.00
2018-08-14T02:08:22.856Z,0.00
2018-08-14T02:09:22.848Z,0.00
2018-08-14T02:10:22.843Z,0.00
2018-08-14T02:11:22.837Z,0.00
2018-08-14T02:12:22.833Z,0.00
2018-08-14T02:13:22.828Z,0.00
2018-08-14T02:14:22.822Z,0.00
2018-08-14T02:15:22.816Z,0.00
2018-08-14T02:16:22.811Z,0.00
2018-08-14T02:17:22.808Z,0.00
2018-08-14T02:18:22.801Z,0.00
2018-08-14T02:19:22.795Z,0.00
2018-08-14T02:20:22.790Z,0.00
2018-08-14T02:21:22.785Z,0.00
2018-08-14T02:22:22.779Z,0.00
2018-08-14T02:23:22.774Z,0.00
2018-08-14T02:24:22.769Z,0.00
2018-08-14T02:25:22.764Z,0.00
2018-08-14T02:26:22.759Z,0.00
2018-08-14T02:27:22.752Z,0.00
2018-08-14T02:28:22.748Z,0.00
2018-08-14T02:29:22.743Z,0.00
2018-08-14T02:30:22.748Z,0.00
2018-08-14T02:31:22.732Z,0.00
2018-08-14T02:32:22.729Z,0.00
2018-08-14T02:33:22.724Z,0.00
2018-08-14T02:34:22.722Z,0.00
2018-08-14T02:35:22.714Z,0.00
2018-08-14T02:36:22.706Z,0.00
2018-08-14T02:37:22.700Z,0.00
2018-08-14T02:38:22.695Z,0.00
2018-08-14T02:39:22.689Z,0.00
2018-08-14T02:40:22.684Z,0.00
2018-08-14T02:41:22.678Z,0.00
2018-08-14T02:42:22.675Z,0.00
2018-08-14T02:43:22.673Z,0.00
2018-08-14T02:44:22.668Z,0.00
2018-08-14T02:45:22.657Z,0.00
2018-08-14T02:46:22.656Z,0.00
2018-08-14T02:47:22.646Z,0.00
2018-08-14T02:48:22.646Z,0.00
2018-08-14T02:49:22.637Z,0.00
2018-08-14T02:50:22.632Z,0.00
2018-08-14T02:51:22.625Z,0.00
2018-08-14T02:52:22.619Z,0.00
2018-08-14T02:53:22.614Z,0.00
2018-08-14T02:54:22.609Z,0.00
2018-08-14T02:55:22.604Z,0.00
2018-08-14T02:56:22.599Z,0.00
2018-08-14T02:57:22.597Z,0.00
2018-08-14T02:58:22.588Z,0.00
2018-08-14T02:59:22.581Z,0.00
2018-08-14T03:00:22.579Z,0.00
2018-08-14T03:01:22.571Z,0.00
2018-08-14T03:02:22.566Z,0.00
2018-08-14T03:03:22.567Z,0.00
2018-08-14T03:04:22.561Z,0.00
2018-08-14T03:05:22.550Z,0.00
2018-08-14T03:06:22.545Z,0.00
2018-08-14T03:07:22.542Z,0.00
2018-08-14T03:08:22.533Z,0.00
2018-08-14T03:09:22.528Z,0.00
2018-08-14T03:10:22.522Z,0.00
2018-08-14T03:11:22.516Z,0.00
2018-08-14T03:12:22.512Z,0.00
2018-08-14T03:13:22.506Z,0.00
2018-08-14T03:14:22.501Z,0.00
2018-08-14T03:15:22.495Z,0.00
2018-08-14T03:16:22.490Z,0.00
2018-08-14T03:17:22.489Z,0.00
2018-08-14T03:18:22.480Z,0.00
2018-08-14T03:19:22.474Z,0.00
2018-08-14T03:20:22.496Z,0.00
2018-08-14T03:21:22.463Z,0.00
2018-08-14T03:22:22.458Z,0.00
2018-08-14T03:23:22.452Z,0.00
2018-08-14T03:24:22.448Z,0.00
2018-08-14T03:25:22.451Z,0.00
2018-08-14T03:26:22.441Z,0.00
2018-08-14T03:27:22.430Z,0.00
2018-08-14T03:28:22.425Z,0.00
2018-08-14T03:29:22.420Z,0.00
2018-08-14T03:30:22.415Z,0.00
2018-08-14T03:31:22.409Z,0.00
2018-08-14T03:32:22.479Z,0.00
2018-08-14T03:33:22.398Z,0.00
2018-08-14T03:34:22.393Z,0.00
2018-08-14T03:35:22.388Z,0.00
2018-08-14T03:36:22.382Z,0.00
2018-08-14T03:37:22.376Z,0.00
2018-08-14T03:38:22.372Z,0.00
2018-08-14T03:39:22.365Z,0.00
2018-08-14T03:40:22.359Z,0.00
2018-08-14T03:41:22.354Z,0.00
2018-08-14T03:42:22.350Z,0.00
2018-08-14T03:43:22.343Z,0.00
2018-08-14T03:44:22.339Z,0.00
2018-08-14T03:45:22.333Z,0.00
2018-08-14T03:46:22.327Z,0.00
2018-08-14T03:47:22.322Z,0.00
2018-08-14T03:48:22.316Z,0.00
2018-08-14T03:49:22.311Z,0.00
2018-08-14T03:50:22.306Z,0.00
2018-08-14T03:51:22.300Z,0.00
2018-08-14T03:52:22.295Z,0.00
2018-08-14T03:53:22.290Z,0.00
2018-08-14T03:54:22.288Z,0.00
2018-08-14T03:55:22.278Z,0.00
2018-08-14T03:56:22.274Z,0.00
2018-08-14T03:57:22.268Z,0.00
2018-08-14T03:58:22.263Z,0.00
2018-08-14T03:59:22.257Z,0.00
2018-08-14T04:00:22.252Z,0.00
2018-08-14T04:01:22.246Z,0.00
2018-08-14T04:02:22.241Z,0.00
2018-08-14T04:03:22.235Z,0.00
2018-08-14T04:04:22.229Z,0.00
2018-08-14T04:05:22.224Z,0.00
2018-08-14T04:06:22.220Z,0.00
2018-08-14T04:07:22.213Z,0.00
2018-08-14T04:08:22.208Z,0.00
2018-08-14T04:09:22.202Z,0.00
2018-08-14T04:10:22.197Z,0.00
2018-08-14T04:11:22.191Z,0.00
2018-08-14T04:12:22.186Z,0.00
2018-08-14T04:13:22.180Z,0.00
2018-08-14T04:14:22.175Z,0.00
2018-08-14T04:15:22.169Z,0.00
2018-08-14T04:16:22.164Z,0.00
2018-08-14T04:17:22.158Z,0.00
2018-08-14T04:18:22.156Z,0.00
2018-08-14T04:19:22.146Z,0.00
2018-08-14T04:20:22.142Z,0.00
2018-08-14T04:21:22.136Z,0.00
2018-08-14T04:22:22.131Z,0.00
2018-08-14T04:23:22.124Z,0.00
2018-08-14T04:24:22.120Z,0.00
2018-08-14T04:25:22.114Z,0.00
2018-08-14T04:26:22.111Z,0.00
2018-08-14T04:27:22.103Z,0.00
2018-08-14T04:28:22.098Z,0.00
2018-08-14T04:29:22.094Z,0.00
2018-08-14T04:30:22.088Z,0.00
2018-08-14T04:31:22.081Z,0.00
2018-08-14T04:32:22.075Z,5.63
2018-08-14T04:33:22.071Z,5.63
2018-08-14T04:34:22.065Z,5.63
2018-08-14T04:35:22.059Z,5.63
2018-08-14T04:36:22.054Z,5.63
2018-08-14T04:37:22.049Z,5.63
2018-08-14T04:38:22.043Z,5.63
2018-08-14T04:39:22.037Z,5.63
2018-08-14T04:40:22.032Z,5.63
2018-08-14T04:41:22.026Z,11.25
2018-08-14T04:42:22.020Z,11.25
2018-08-14T04:43:22.015Z,5.63
2018-08-14T04:44:22.010Z,5.63
2018-08-14T04:45:22.004Z,5.63
2018-08-14T04:46:21.999Z,5.63
2018-08-14T04:47:21.993Z,11.25
2018-08-14T04:48:21.987Z,11.25
2018-08-14T04:49:21.982Z,11.25
2018-08-14T04:50:21.977Z,11.25
2018-08-14T04:51:21.972Z,11.25
2018-08-14T04:52:21.965Z,11.25
2018-08-14T04:53:21.960Z,11.25
2018-08-14T04:54:21.954Z,5.63
2018-08-14T04:55:21.951Z,5.63
2018-08-14T04:56:21.943Z,5.63
2018-08-14T04:57:21.938Z,5.63
2018-08-14T04:58:21.932Z,5.63
2018-08-14T04:59:21.926Z,5.63
2018-08-14T05:00:21.921Z,5.63
2018-08-14T05:01:21.915Z,11.25
2018-08-14T05:02:21.910Z,11.25
2018-08-14T05:03:21.914Z,11.25
2018-08-14T05:04:21.898Z,11.25
2018-08-14T05:05:21.893Z,11.25
2018-08-14T05:06:21.887Z,16.88
2018-08-14T05:07:21.881Z,16.88
2018-08-14T05:08:21.875Z,16.88
2018-08-14T05:09:21.871Z,16.88
2018-08-14T05:10:21.865Z,16.88
2018-08-14T05:11:21.859Z,22.50
2018-08-14T05:12:21.854Z,28.13
2018-08-14T05:13:21.849Z,28.13
2018-08-14T05:14:21.842Z,28.13
2018-08-14T05:15:21.836Z,28.13
2018-08-14T05:16:21.831Z,28.13
2018-08-14T05:17:21.827Z,28.13
2018-08-14T05:18:21.826Z,28.13
2018-08-14T05:19:21.814Z,28.13
2018-08-14T05:20:21.809Z,28.13
2018-08-14T05:21:21.804Z,33.75
2018-08-14T05:22:21.799Z,33.75
2018-08-14T05:23:21.795Z,33.75
2018-08-14T05:24:21.789Z,33.75
2018-08-14T05:25:21.782Z,39.38
2018-08-14T05:26:21.777Z,33.75
2018-08-14T05:27:21.770Z,45.00
2018-08-14T05:28:21.766Z,45.00
2018-08-14T05:29:21.762Z,45.00
2018-08-14T05:30:21.754Z,45.00
2018-08-14T05:31:21.748Z,33.75
2018-08-14T05:32:21.743Z,28.13
2018-08-14T05:33:21.749Z,33.75
2018-08-14T05:34:21.734Z,45.00
2018-08-14T05:35:21.727Z,56.25
2018-08-14T05:36:21.721Z,61.88
2018-08-14T05:37:21.716Z,61.88
2018-08-14T05:38:21.713Z,45.00
2018-08-14T05:39:21.705Z,39.38
2018-08-14T05:40:21.700Z,33.75
2018-08-14T05:41:21.695Z,39.38
2018-08-14T05:42:21.689Z,33.75
2018-08-14T05:43:21.721Z,28.13
2018-08-14T05:44:21.678Z,33.75
2018-08-14T05:45:21.673Z,28.13
2018-08-14T05:46:21.668Z,28.13
2018-08-14T05:47:21.662Z,28.13
2018-08-14T05:48:21.659Z,28.13
2018-08-14T05:49:21.651Z,28.13
2018-08-14T05:50:21.646Z,28.13
2018-08-14T05:51:21.644Z,28.13
2018-08-14T05:52:21.635Z,28.13
2018-08-14T05:53:21.631Z,28.13
2018-08-14T05:54:21.624Z,28.13
2018-08-14T05:55:21.619Z,28.13
2018-08-14T05:56:21.613Z,33.75
2018-08-14T05:57:21.608Z,33.75
2018-08-14T05:58:21.603Z,39.38
2018-08-14T05:59:21.596Z,45.00
2018-08-14T06:00:21.593Z,50.63
2018-08-14T06:01:21.587Z,50.63
2018-08-14T06:02:21.582Z,50.63
2018-08-14T06:03:21.576Z,45.00
2018-08-14T06:04:21.572Z,45.00
2018-08-14T06:05:21.567Z,45.00
2018-08-14T06:06:21.561Z,50.63
2018-08-14T06:07:21.553Z,50.63
2018-08-14T06:08:21.549Z,45.00
2018-08-14T06:09:21.544Z,45.00
2018-08-14T06:10:21.633Z,45.00
2018-08-14T06:11:21.532Z,45.00
2018-08-14T06:12:21.530Z,39.38
2018-08-14T06:13:21.521Z,45.00
2018-08-14T06:14:21.516Z,50.63
2018-08-14T06:15:21.510Z,50.63
2018-08-14T06:16:21.505Z,56.25
2018-08-14T06:17:21.500Z,67.50
2018-08-14T06:18:21.496Z,78.75
2018-08-14T06:19:21.488Z,95.63
2018-08-14T06:20:21.483Z,90.00
2018-08-14T06:21:21.478Z,95.63
2018-08-14T06:22:21.473Z,90.00
2018-08-14T06:23:21.467Z,73.13
2018-08-14T06:24:21.462Z,73.13
2018-08-14T06:25:21.525Z,67.50
2018-08-14T06:26:21.452Z,56.25
2018-08-14T06:27:21.445Z,61.88
2018-08-14T06:28:21.449Z,56.25
2018-08-14T06:29:21.436Z,56.25
2018-08-14T06:30:21.434Z,67.50
2018-08-14T06:31:21.424Z,90.00
2018-08-14T06:32:21.419Z,123.75
2018-08-14T06:33:21.414Z,135.00
2018-08-14T06:34:21.421Z,135.00
2018-08-14T06:35:21.416Z,140.63
2018-08-14T06:36:21.398Z,163.13
2018-08-14T06:37:21.394Z,163.13
2018-08-14T06:38:21.388Z,146.25
2018-08-14T06:39:21.382Z,123.75
2018-08-14T06:40:21.378Z,118.13
2018-08-14T06:41:21.373Z,95.63
2018-08-14T06:42:21.368Z,101.25
2018-08-14T06:43:21.362Z,123.75
2018-08-14T06:44:21.357Z,118.13
2018-08-14T06:45:21.353Z,123.75
2018-08-14T06:46:21.435Z,112.50
2018-08-14T06:47:21.342Z,106.88
2018-08-14T06:48:21.337Z,95.63
2018-08-14T06:49:21.333Z,95.63
2018-08-14T06:50:21.328Z,95.63
2018-08-14T06:51:21.322Z,90.00
2018-08-14T06:52:21.321Z,101.25
2018-08-14T06:53:21.313Z,106.88
2018-08-14T06:54:21.308Z,112.50
2018-08-14T06:55:21.303Z,106.88
2018-08-14T06:56:21.297Z,101.25
2018-08-14T06:57:21.293Z,118.13
2018-08-14T06:58:21.288Z,123.75
2018-08-14T06:59:21.287Z,135.00
2018-08-14T07:00:21.277Z,101.25
2018-08-14T07:01:21.272Z,90.00
2018-08-14T07:02:21.267Z,95.63
2018-08-14T07:03:21.262Z,106.88
2018-08-14T07:04:21.257Z,73.13
2018-08-14T07:05:21.256Z,84.38
2018-08-14T07:06:21.247Z,84.38
2018-08-14T07:07:21.244Z,106.88
2018-08-14T07:08:21.238Z,106.88
2018-08-14T07:09:21.235Z,112.50
2018-08-14T07:10:21.227Z,129.38
2018-08-14T07:11:21.222Z,140.63
2018-08-14T07:12:21.217Z,95.63
2018-08-14T07:13:21.213Z,101.25
2018-08-14T07:14:21.208Z,112.50
2018-08-14T07:15:21.204Z,146.25
2018-08-14T07:16:21.200Z,140.63
2018-08-14T07:17:21.193Z,157.50
2018-08-14T07:18:21.188Z,174.38
2018-08-14T07:19:21.183Z,196.88
2018-08-14T07:20:21.184Z,213.75
2018-08-14T07:21:21.174Z,219.38
2018-08-14T07:22:21.190Z,286.88
2018-08-14T07:23:21.168Z,270.00
2018-08-14T07:24:21.159Z,219.38
2018-08-14T07:25:21.155Z,213.75
2018-08-14T07:26:21.151Z,421.88
2018-08-14T07:27:21.145Z,573.75
2018-08-14T07:28:21.193Z,579.38
2018-08-14T07:29:21.136Z,562.50
2018-08-14T07:30:21.133Z,466.88
2018-08-14T07:31:21.127Z,511.88
2018-08-14T07:32:21.123Z,472.50
2018-08-14T07:33:21.123Z,596.25
2018-08-14T07:34:21.117Z,669.38
2018-08-14T07:35:21.111Z,933.75
2018-08-14T07:36:21.107Z,1288.13
2018-08-14T07:37:21.104Z,1091.25
2018-08-14T07:38:21.101Z,680.63
2018-08-14T07:39:21.097Z,506.25
2018-08-14T07:40:21.094Z,455.63
2018-08-14T07:41:21.139Z,416.25
2018-08-14T07:42:21.089Z,360.00
2018-08-14T07:43:21.084Z,292.50
2018-08-14T07:44:21.081Z,247.50
2018-08-14T07:45:21.080Z,208.13
2018-08-14T07:46:21.075Z,163.13
2018-08-14T07:47:21.074Z,135.00
2018-08-14T07:48:21.072Z,163.13
2018-08-14T07:49:21.064Z,185.63
2018-08-14T07:50:21.061Z,157.50
2018-08-14T07:51:21.056Z,163.13
2018-08-14T07:52:21.052Z,202.50
2018-08-14T07:53:21.049Z,196.88
2018-08-14T07:54:21.045Z,213.75
2018-08-14T07:55:21.039Z,180.00
2018-08-14T07:56:21.038Z,123.75
2018-08-14T07:57:21.032Z,95.63
2018-08-14T07:58:21.033Z,84.38
2018-08-14T07:59:21.022Z,90.00
2018-08-14T08:00:21.017Z,78.75
2018-08-14T08:01:21.012Z,73.13
2018-08-14T08:02:21.007Z,84.38
2018-08-14T08:03:21.002Z,95.63
2018-08-14T08:04:20.996Z,118.13
2018-08-14T08:05:20.991Z,157.50
2018-08-14T08:06:21.004Z,185.63
2018-08-14T08:07:20.981Z,241.88
2018-08-14T08:08:20.975Z,174.38
2018-08-14T08:09:20.971Z,168.75
2018-08-14T08:10:21.067Z,174.38
2018-08-14T08:11:20.963Z,123.75
2018-08-14T08:12:20.955Z,101.25
2018-08-14T08:13:20.950Z,67.50
2018-08-14T08:14:20.945Z,50.63
2018-08-14T08:15:21.240Z,67.50
2018-08-14T08:16:20.937Z,101.25
2018-08-14T08:17:20.929Z,129.38
2018-08-14T08:18:20.971Z,180.00
2018-08-14T08:19:20.918Z,281.25
2018-08-14T08:20:20.913Z,388.13
2018-08-14T08:21:20.908Z,506.25
2018-08-14T08:22:20.905Z,798.75
2018-08-14T08:23:20.898Z,1023.75
2018-08-14T08:24:20.893Z,1693.13
2018-08-14T08:25:20.889Z,2188.13
2018-08-14T08:26:20.885Z,1040.63
2018-08-14T08:27:20.883Z,1108.13
2018-08-14T08:28:20.878Z,1215.00
2018-08-14T08:29:20.875Z,1704.38
2018-08-14T08:30:20.873Z,781.88
2018-08-14T08:31:20.873Z,635.63
2018-08-14T08:32:20.868Z,601.88
2018-08-14T08:33:20.866Z,652.50
2018-08-14T08:34:21.001Z,759.38
2018-08-14T08:35:20.863Z,866.25
2018-08-14T08:36:20.859Z,669.38
2018-08-14T08:37:20.857Z,416.25
2018-08-14T08:38:20.855Z,253.13
2018-08-14T08:39:20.852Z,157.50
2018-08-14T08:40:20.850Z,180.00
2018-08-14T08:41:20.847Z,219.38
2018-08-14T08:42:20.849Z,264.38
2018-08-14T08:43:20.841Z,191.25
2018-08-14T08:44:20.839Z,196.88
2018-08-14T08:45:20.835Z,174.38
2018-08-14T08:46:20.832Z,135.00
2018-08-14T08:47:20.829Z,135.00
2018-08-14T08:48:20.825Z,241.88
2018-08-14T08:49:20.823Z,455.63
2018-08-14T08:50:20.819Z,573.75
2018-08-14T08:51:20.816Z,697.50
2018-08-14T08:52:20.811Z,967.50
2018-08-14T08:53:20.808Z,866.25
2018-08-14T08:54:20.805Z,1029.38
2018-08-14T08:55:20.802Z,1355.63
2018-08-14T08:56:20.798Z,1423.13
2018-08-14T08:57:20.795Z,1530.00
2018-08-14T08:58:20.883Z,1518.75
2018-08-14T08:59:20.790Z,1243.13
2018-08-14T09:00:20.788Z,939.38
2018-08-14T09:01:20.787Z,922.50
2018-08-14T09:02:20.785Z,1794.38
2018-08-14T09:03:20.783Z,1282.50
2018-08-14T09:04:20.785Z,2941.88
2018-08-14T09:05:20.781Z,2548.13
2018-08-14T09:06:20.782Z,2649.38
2018-08-14T09:07:20.780Z,2075.63
2018-08-14T09:08:20.781Z,2385.00
2018-08-14T09:09:20.836Z,2351.25
2018-08-14T09:10:20.786Z,2160.00
2018-08-14T09:11:20.786Z,1575.00
2018-08-14T09:12:20.789Z,1580.63
2018-08-14T09:13:20.792Z,2733.75
2018-08-14T09:14:20.796Z,1749.38
2018-08-14T09:15:20.802Z,1558.13
2018-08-14T09:16:20.802Z,1186.88
2018-08-14T09:17:20.806Z,1535.63
2018-08-14T09:18:20.811Z,1850.63
2018-08-14T09:19:20.816Z,1861.88
2018-08-14T09:20:20.818Z,3015.00
2018-08-14T09:21:20.823Z,3037.50
2018-08-14T09:22:20.831Z,3375.00
2018-08-14T09:23:20.832Z,3712.50
2018-08-14T09:24:20.838Z,2975.63
2018-08-14T09:25:20.844Z,3127.50
2018-08-14T09:26:20.850Z,1850.63
2018-08-14T09:27:20.857Z,1265.63
2018-08-14T09:28:20.865Z,1186.88
2018-08-14T09:29:20.875Z,3172.50
2018-08-14T09:30:20.876Z,1951.88
2018-08-14T09:31:20.881Z,1383.75
2018-08-14T09:32:20.889Z,1153.13
2018-08-14T09:33:20.893Z,1125.00
2018-08-14T09:34:20.899Z,1501.88
2018-08-14T09:35:20.903Z,1749.38
2018-08-14T09:36:20.908Z,1068.75
2018-08-14T09:37:20.914Z,691.88
2018-08-14T09:38:20.921Z,511.88
2018-08-14T09:39:20.922Z,438.75
2018-08-14T09:40:20.926Z,438.75
2018-08-14T09:41:20.929Z,326.25
2018-08-14T09:42:20.932Z,236.25
2018-08-14T09:43:20.933Z,191.25
2018-08-14T09:44:20.936Z,247.50
2018-08-14T09:45:20.940Z,202.50
2018-08-14T09:46:20.939Z,163.13
2018-08-14T09:47:20.939Z,174.38
2018-08-14T09:48:20.939Z,253.13
2018-08-14T09:49:20.939Z,315.00
2018-08-14T09:50:20.939Z,298.13
2018-08-14T09:51:20.938Z,275.63
2018-08-14T09:52:20.942Z,337.50
2018-08-14T09:53:20.937Z,365.63
2018-08-14T09:54:20.974Z,500.63
2018-08-14T09:55:20.935Z,731.25
2018-08-14T09:56:20.935Z,1051.88
2018-08-14T09:57:20.933Z,2480.63
2018-08-14T09:58:20.933Z,1316.25
2018-08-14T09:59:20.931Z,1411.88
2018-08-14T10:00:20.931Z,1440.00
2018-08-14T10:01:20.931Z,1732.50
2018-08-14T10:02:20.931Z,1411.88
2018-08-14T10:03:20.931Z,1316.25
2018-08-14T10:04:20.932Z,1102.50
2018-08-14T10:05:20.933Z,798.75
2018-08-14T10:06:20.934Z,680.63
2018-08-14T10:07:20.935Z,540.00
2018-08-14T10:08:20.935Z,421.88
2018-08-14T10:09:20.935Z,365.63
2018-08-14T10:10:20.936Z,354.38
2018-08-14T10:11:20.935Z,489.38
2018-08-14T10:12:20.935Z,568.13
2018-08-14T10:13:20.938Z,1074.38
2018-08-14T10:14:20.936Z,1597.50
2018-08-14T10:15:20.935Z,3526.88
2018-08-14T10:16:20.937Z,2446.88
2018-08-14T10:17:20.937Z,1186.88
2018-08-14T10:18:20.940Z,1153.13
2018-08-14T10:19:20.940Z,1372.50
2018-08-14T10:20:20.945Z,1918.13
2018-08-14T10:21:20.947Z,2002.50
2018-08-14T10:22:20.948Z,1659.38
2018-08-14T10:23:20.950Z,2047.50
2018-08-14T10:24:20.953Z,4078.13
2018-08-14T10:25:20.957Z,2165.63
2018-08-14T10:26:20.964Z,1670.63
2018-08-14T10:27:20.965Z,1648.13
2018-08-14T10:28:20.997Z,1721.25
2018-08-14T10:29:20.974Z,1485.00
2018-08-14T10:30:20.979Z,3408.75
2018-08-14T10:31:20.983Z,1333.13
2018-08-14T10:32:20.988Z,1046.25
2018-08-14T10:33:20.994Z,888.75
2018-08-14T10:34:20.998Z,759.38
2018-08-14T10:35:21.004Z,736.88
2018-08-14T10:36:21.006Z,708.75
2018-08-14T10:37:21.010Z,658.13
2018-08-14T10:38:21.013Z,742.50
2018-08-14T10:39:21.015Z,939.38
2018-08-14T10:40:21.018Z,1456.88
2018-08-14T10:41:21.020Z,1198.13
2018-08-14T10:42:21.024Z,1063.13
2018-08-14T10:43:21.025Z,1074.38
2018-08-14T10:44:21.027Z,1153.13
2018-08-14T10:45:21.029Z,1181.25
2018-08-14T10:46:21.067Z,1642.50
2018-08-14T10:47:21.033Z,2053.13
2018-08-14T10:48:21.035Z,1108.13
2018-08-14T10:49:21.038Z,928.13
2018-08-14T10:50:21.040Z,900.00
2018-08-14T10:51:21.043Z,945.00
2018-08-14T10:52:21.044Z,950.63
2018-08-14T10:53:21.047Z,905.63
2018-08-14T10:54:21.048Z,826.88
2018-08-14T10:55:21.049Z,787.50
2018-08-14T10:56:21.051Z,714.38
2018-08-14T10:57:21.053Z,641.25
2018-08-14T10:58:21.055Z,579.38
2018-08-14T10:59:21.054Z,545.63
2018-08-14T11:00:21.056Z,630.00
2018-08-14T11:01:21.057Z,776.25
2018-08-14T11:02:21.058Z,922.50
2018-08-14T11:03:21.110Z,973.13
2018-08-14T11:04:21.080Z,1001.25
2018-08-14T11:05:21.058Z,978.75
2018-08-14T11:06:21.060Z,1119.38
2018-08-14T11:07:21.060Z,990.00
2018-08-14T11:08:21.060Z,1068.75
2018-08-14T11:09:21.060Z,1029.38
2018-08-14T11:10:21.061Z,3262.50
2018-08-14T11:11:21.061Z,3200.63
2018-08-14T11:12:21.062Z,2694.38
2018-08-14T11:13:21.063Z,3391.88
2018-08-14T11:14:21.066Z,1456.88
2018-08-14T11:15:21.068Z,1659.38
2018-08-14T11:16:21.106Z,2508.75
2018-08-14T11:17:21.075Z,2536.88
2018-08-14T11:18:21.080Z,2126.25
2018-08-14T11:19:21.383Z,1350.00
2018-08-14T11:20:21.088Z,2970.00
2018-08-14T11:21:21.096Z,3076.88
2018-08-14T11:22:21.098Z,3172.50
2018-08-14T11:23:21.103Z,3391.88
2018-08-14T11:24:21.109Z,3375.00
2018-08-14T11:25:21.116Z,1974.38
2018-08-14T11:26:21.122Z,1006.88
2018-08-14T11:27:21.131Z,3009.38
2018-08-14T11:28:21.135Z,2986.88
2018-08-14T11:29:21.144Z,3060.00
2018-08-14T11:30:21.149Z,2970.00
2018-08-14T11:31:21.159Z,3127.50
2018-08-14T11:32:21.176Z,3234.38
2018-08-14T11:33:21.172Z,3105.00
2018-08-14T11:34:21.181Z,1788.75
2018-08-14T11:35:21.188Z,3026.25
2018-08-14T11:36:21.201Z,1350.00
2018-08-14T11:37:21.207Z,3206.25
2018-08-14T11:38:21.216Z,1501.88
2018-08-14T11:39:21.223Z,2520.00
2018-08-14T11:40:21.234Z,860.63
2018-08-14T11:41:21.241Z,1068.75
2018-08-14T11:42:21.249Z,2311.88
2018-08-14T11:43:21.257Z,2356.88
2018-08-14T11:44:21.264Z,894.38
2018-08-14T11:45:21.272Z,1203.75
2018-08-14T11:46:21.280Z,1361.25
2018-08-14T11:47:21.286Z,1991.25
2018-08-14T11:48:21.293Z,2216.25
2018-08-14T11:49:21.303Z,1231.88
2018-08-14T11:50:21.312Z,2221.88
2018-08-14T11:51:21.313Z,2902.50
2018-08-14T11:52:21.319Z,1400.63
2018-08-14T11:53:21.325Z,1642.50
2018-08-14T11:54:21.333Z,1963.13
2018-08-14T11:55:21.343Z,1243.13
2018-08-14T11:56:21.348Z,1411.88
2018-08-14T11:57:21.398Z,1057.50
2018-08-14T11:58:21.356Z,939.38
2018-08-14T11:59:21.361Z,939.38
2018-08-14T12:00:21.366Z,1006.88
2018-08-14T12:01:21.372Z,1209.38
2018-08-14T12:02:21.379Z,3273.75
2018-08-14T12:03:21.384Z,3397.50
2018-08-14T12:04:21.387Z,3375.00
2018-08-14T12:05:21.394Z,2688.75
2018-08-14T12:06:21.401Z,1828.13
2018-08-14T12:07:21.407Z,2587.50
2018-08-14T12:08:21.417Z,1327.50
2018-08-14T12:09:21.421Z,1293.75
2018-08-14T12:10:21.428Z,1125.00
2018-08-14T12:11:21.575Z,1096.88
2018-08-14T12:12:21.441Z,1057.50
2018-08-14T12:13:21.447Z,1023.75
2018-08-14T12:14:21.452Z,1023.75
2018-08-14T12:15:21.457Z,1102.50
2018-08-14T12:16:21.462Z,1434.38
2018-08-14T12:17:21.468Z,1305.00
2018-08-14T12:18:21.528Z,1282.50
2018-08-14T12:19:21.477Z,1350.00
2018-08-14T12:20:21.491Z,1940.63
2018-08-14T12:21:21.487Z,1305.00
2018-08-14T12:22:21.491Z,894.38
2018-08-14T12:23:21.495Z,933.75
2018-08-14T12:24:21.500Z,1383.75
2018-08-14T12:25:21.504Z,1074.38
2018-08-14T12:26:21.509Z,871.88
2018-08-14T12:27:21.577Z,826.88
2018-08-14T12:28:21.517Z,787.50
2018-08-14T12:29:21.520Z,686.25
2018-08-14T12:30:21.526Z,669.38
2018-08-14T12:31:21.527Z,691.88
2018-08-14T12:32:21.530Z,635.63
2018-08-14T12:33:21.532Z,596.25
2018-08-14T12:34:21.536Z,635.63
2018-08-14T12:35:21.537Z,748.13
2018-08-14T12:36:21.540Z,776.25
2018-08-14T12:37:21.542Z,641.25
2018-08-14T12:38:21.544Z,517.50
2018-08-14T12:39:21.545Z,495.00
2018-08-14T12:40:21.581Z,495.00
2018-08-14T12:41:21.548Z,523.13
2018-08-14T12:42:21.549Z,495.00
2018-08-14T12:43:21.549Z,427.50
2018-08-14T12:44:21.551Z,399.38
2018-08-14T12:45:21.551Z,360.00